Time;durP1;ratioP1;P1;durP2;ratioP2;P2;SDS_P1;SDS_P2;PMS_P1;PMS_P2;Temp;Humidity;BMP_temperature;BMP_pressure;BME280_temperature;BME280_humidity;BME280_pressure;Samples;Min_cycle;Max_cycle;Signal;HPM_P1;HPM_P2
2023/01/26 00:05:02;;;;;;;21.95;9.68;;;-3.70;99.90;;;;;;20917339;28;20075;-55
2023/01/26 00:15:05;;;;;;;23.52;10.80;;;-3.80;99.90;;;;;;20901322;28;20024;-56
2023/01/26 00:25:07;;;;;;;25.40;9.98;;;-3.70;99.90;;;;;;20916661;28;20025;-54
2023/01/26 00:35:09;;;;;;;19.88;9.45;;;-4.00;99.90;;;;;;20914664;28;20041;-56
2023/01/26 00:45:11;;;;;;;18.33;9.80;;;-4.10;99.90;;;;;;20914913;28;20040;-54
2023/01/26 00:55:13;;;;;;;17.17;8.63;;;-3.30;99.90;;;;;;20914308;28;20099;-55
2023/01/26 01:05:16;;;;;;;19.23;9.20;;;-3.40;99.90;;;;;;20914241;28;20083;-56
2023/01/26 01:15:17;;;;;;;17.83;9.07;;;-3.50;99.90;;;;;;20911437;28;20032;-58
2023/01/26 01:25:20;;;;;;;15.07;8.07;;;-3.10;99.90;;;;;;20893609;28;20037;-56
2023/01/26 01:35:22;;;;;;;14.50;7.55;;;-2.80;99.90;;;;;;20911109;28;20055;-56
2023/01/26 01:45:47;;;;;;;16.85;8.38;;;-2.90;99.90;;;;;;20910540;28;20032;-56
2023/01/26 01:55:52;;;;;;;14.95;8.45;;;-3.50;99.90;;;;;;20890239;28;20367;-56
2023/01/26 02:06:30;;;;;;;17.90;8.75;;;-3.20;99.90;;;;;;20908952;28;20094;-55
2023/01/26 02:16:34;;;;;;;16.13;7.93;;;-3.40;99.90;;;;;;20889949;28;20033;-56
2023/01/26 02:26:37;;;;;;;16.80;8.38;;;-3.90;99.90;;;;;;20889026;28;20374;-57
2023/01/26 02:36:39;;;;;;;20.25;9.02;;;-4.10;99.90;;;;;;20888495;28;20033;-55
2023/01/26 02:46:41;;;;;;;17.15;8.25;;;-4.20;99.90;;;;;;20888796;28;20080;-57
2023/01/26 02:56:42;;;;;;;16.58;8.15;;;-4.30;99.90;;;;;;20887085;28;20044;-58
2023/01/26 03:06:44;;;;;;;18.23;8.93;;;-4.50;99.90;;;;;;20886255;28;20036;-57
2023/01/26 03:16:46;;;;;;;21.20;9.45;;;-4.40;99.90;;;;;;20904142;28;20021;-56
2023/01/26 03:37:08;;;;;;;21.52;9.68;;;-4.60;99.90;;;;;;20901554;28;20040;-57
2023/01/26 03:57:48;;;;;;;40.97;17.20;;;-4.80;99.90;;;;;;20883107;28;20344;-56
2023/01/26 04:28:32;;;;;;;26.58;11.50;;;-4.40;99.90;;;;;;20882018;28;20398;-56
2023/01/26 04:38:34;;;;;;;27.83;12.00;;;-4.80;99.90;;;;;;20882378;28;20025;-56
2023/01/26 04:48:36;;;;;;;35.80;14.38;;;-5.00;99.90;;;;;;20891148;28;20447;-55
2023/01/26 04:58:39;;;;;;;18.02;8.10;;;-4.50;99.90;;;;;;20914122;28;20033;-55
2023/01/26 05:08:41;;;;;;;23.63;11.30;;;-2.90;99.90;;;;;;20896556;28;20099;-56
2023/01/26 05:18:44;;;;;;;24.30;10.35;;;-2.80;99.90;;;;;;20895989;28;20037;-55
2023/01/26 05:29:13;;;;;;;12.82;6.18;;;-2.90;99.90;;;;;;20908199;28;20049;-56
2023/01/26 05:39:15;;;;;;;7.70;3.60;;;-2.90;99.90;;;;;;20893784;28;20490;-55
2023/01/26 05:49:17;;;;;;;7.10;3.35;;;-2.80;99.90;;;;;;20893947;28;20040;-57
2023/01/26 05:59:19;;;;;;;5.95;2.60;;;-2.50;99.90;;;;;;20891001;28;20041;-57
2023/01/26 06:09:22;;;;;;;5.20;2.65;;;-2.30;99.90;;;;;;20890363;28;20041;-56
2023/01/26 06:19:42;;;;;;;;;;;-2.70;99.90;;;;;;20908752;28;20063;-58
2023/01/26 06:29:44;;;;;;;5.07;2.50;;;-3.60;99.90;;;;;;20887561;28;19927;-57
2023/01/26 06:39:46;;;;;;;7.20;3.33;;;-3.50;99.90;;;;;;20886093;28;20044;-56
2023/01/26 06:49:48;;;;;;;5.70;2.78;;;-2.90;99.90;;;;;;20870821;28;20478;-57
2023/01/26 06:59:51;;;;;;;4.75;2.28;;;-3.20;99.90;;;;;;20883278;28;20041;-56
2023/01/26 07:10:11;;;;;;;6.90;2.67;;;-3.40;99.90;;;;;;20902464;28;20037;-56
2023/01/26 07:20:13;;;;;;;10.68;5.47;;;-3.00;99.90;;;;;;20905342;28;20035;-57
2023/01/26 07:30:15;;;;;;;8.23;4.07;;;-3.50;99.90;;;;;;20904111;28;20033;-57
2023/01/26 07:40:17;;;;;;;16.83;7.90;;;-3.80;99.90;;;;;;20898767;28;20021;-57
2023/01/26 07:50:20;;;;;;;17.45;7.28;;;-3.90;99.90;;;;;;20903024;28;20029;-55
2023/01/26 08:00:22;;;;;;;11.95;5.93;;;-4.00;99.90;;;;;;20901376;28;20104;-57
2023/01/26 08:10:24;;;;;;;11.45;6.28;;;-2.90;99.90;;;;;;20901184;28;20033;-56
2023/01/26 08:20:25;;;;;;;11.00;6.80;;;-1.90;99.90;;;;;;20905723;28;20375;-56
2023/01/26 08:30:27;;;;;;;14.65;7.78;;;-0.80;99.90;;;;;;20917490;28;20039;-57
2023/01/26 08:40:29;;;;;;;12.85;7.55;;;0.20;99.90;;;;;;20916737;28;20037;-56
2023/01/26 08:50:30;;;;;;;13.85;7.47;;;0.70;99.90;;;;;;20915066;28;20056;-57
2023/01/26 09:00:32;;;;;;;11.38;5.95;;;1.10;99.90;;;;;;20914142;28;20037;-54
2023/01/26 09:10:35;;;;;;;9.00;5.70;;;1.50;99.90;;;;;;20913640;28;20559;-55
2023/01/26 09:20:37;;;;;;;8.20;5.00;;;2.10;99.90;;;;;;20909634;28;20025;-55
2023/01/26 09:30:39;;;;;;;7.88;4.80;;;2.90;99.90;;;;;;20911156;28;20032;-50
2023/01/26 09:40:59;;;;;;;6.28;4.20;;;3.00;99.90;;;;;;20911102;28;20046;-54
2023/01/26 09:51:10;;;;;;;6.70;4.10;;;3.50;99.90;;;;;;20910287;28;20044;-55
2023/01/26 10:01:23;;;;;;;6.93;4.53;;;4.50;99.90;;;;;;20888714;28;20567;-55
2023/01/26 10:11:31;;;;;;;8.23;4.95;;;5.30;99.90;;;;;;20907050;28;20091;-53
2023/01/26 10:21:38;;;;;;;7.78;4.85;;;5.20;99.90;;;;;;20909004;28;20060;-53
2023/01/26 10:31:40;;;;;;;7.97;5.28;;;5.10;99.90;;;;;;20906757;28;20810;-53
2023/01/26 10:42:00;;;;;;;6.75;4.82;;;5.50;99.90;;;;;;20905830;28;20033;-54
2023/01/26 10:52:24;;;;;;;6.22;4.22;;;5.90;99.90;;;;;;20904737;28;20474;-54
2023/01/26 11:02:29;;;;;;;9.18;4.75;;;6.20;99.90;;;;;;20902985;28;20107;-51
2023/01/26 11:12:31;;;;;;;7.75;5.47;;;6.20;99.90;;;;;;20904206;28;20060;-55
2023/01/26 11:22:47;;;;;;;9.48;6.43;;;6.60;99.90;;;;;;20903797;28;20025;-54
2023/01/26 11:32:58;;;;;;;10.48;7.47;;;6.70;99.90;;;;;;20897177;28;20370;-52
2023/01/26 11:43:21;;;;;;;11.35;6.95;;;6.80;99.90;;;;;;20901476;28;20071;-52
2023/01/26 11:53:51;;;;;;;12.30;7.40;;;6.70;99.90;;;;;;20899862;28;20541;-54
2023/01/26 12:03:52;;;;;;;10.43;7.50;;;6.40;99.90;;;;;;20915366;28;20090;-52
2023/01/26 12:14:19;;;;;;;14.70;8.15;;;6.90;99.90;;;;;;20917870;28;20037;-53
2023/01/26 12:24:42;;;;;;;12.05;7.88;;;6.40;99.90;;;;;;20916777;28;20107;-54
2023/01/26 12:34:44;;;;;;;14.30;8.75;;;5.60;99.90;;;;;;20914665;28;20033;-55
2023/01/26 12:44:55;;;;;;;12.77;8.32;;;5.30;99.90;;;;;;20915790;28;20444;-55
2023/01/26 12:55:17;;;;;;;13.95;8.70;;;5.00;99.90;;;;;;20914834;28;20029;-54
2023/01/26 13:05:24;;;;;;;11.98;8.13;;;5.50;99.90;;;;;;20913698;28;20478;-54
2023/01/26 13:15:31;;;;;;;14.35;8.95;;;5.90;99.90;;;;;;20913475;28;20037;-53
2023/01/26 13:25:32;;;;;;;14.93;9.45;;;5.60;99.90;;;;;;20911687;28;20058;-54
2023/01/26 13:35:35;;;;;;;14.13;8.02;;;4.50;99.90;;;;;;20908920;28;20115;-54
2023/01/26 13:46:04;;;;;;;15.70;8.75;;;3.60;99.90;;;;;;20909607;28;20032;-56
2023/01/26 13:56:27;;;;;;;17.05;9.27;;;3.10;99.90;;;;;;20909735;28;20033;-55
2023/01/26 14:06:28;;;;;;;16.30;9.35;;;1.90;99.90;;;;;;20905040;28;20037;-56
2023/01/26 14:16:35;;;;;;;16.42;8.57;;;1.20;99.90;;;;;;20907755;28;20087;-54
2023/01/26 14:26:37;;;;;;;17.85;9.30;;;0.90;99.90;;;;;;20907762;28;20024;-57
2023/01/26 14:36:38;;;;;;;16.65;9.57;;;0.80;99.90;;;;;;20906583;28;20182;-57
2023/01/26 14:46:43;;;;;;;19.40;10.00;;;0.70;99.90;;;;;;20886194;28;20041;-56
2023/01/26 14:56:47;;;;;;;20.45;10.05;;;0.50;99.90;;;;;;20905078;28;20048;-56
2023/01/26 15:06:49;;;;;;;23.83;10.95;;;0.70;99.90;;;;;;20904572;28;20037;-56
2023/01/26 15:16:51;;;;;;;22.23;11.48;;;0.50;99.90;;;;;;20886019;28;20040;-56
2023/01/26 15:27:04;;;;;;;34.28;13.07;;;0.10;99.90;;;;;;20902673;28;20079;-56
2023/01/26 15:37:28;;;;;;;22.08;12.32;;;-0.20;99.90;;;;;;20899722;28;20036;-57
2023/01/26 15:47:30;;;;;;;135.38;17.52;;;-1.20;99.90;;;;;;20892006;28;20033;-54
2023/01/26 15:57:31;;;;;;;69.43;14.90;;;-1.80;99.90;;;;;;20897575;28;20045;-56
2023/01/26 16:07:33;;;;;;;71.28;15.70;;;-2.40;99.90;;;;;;20895692;28;20037;-57
2023/01/26 16:17:35;;;;;;;146.23;16.38;;;-2.50;99.90;;;;;;20904388;28;20033;-55
2023/01/26 16:27:36;;;;;;;155.68;19.20;;;-2.50;99.90;;;;;;20898906;28;20032;-55
2023/01/26 16:37:38;;;;;;;132.88;16.42;;;-2.80;99.90;;;;;;20884372;28;20028;-56
2023/01/26 16:47:40;;;;;;;84.28;16.80;;;-3.00;99.90;;;;;;20913066;28;20363;-54
2023/01/26 16:57:44;;;;;;;289.58;24.00;;;-3.10;99.90;;;;;;20913134;28;20107;-55
2023/01/26 17:07:46;;;;;;;53.60;17.23;;;-3.20;99.90;;;;;;20910434;28;20048;-54
2023/01/26 17:17:48;;;;;;;40.10;15.80;;;-3.50;99.90;;;;;;20912171;28;20037;-55
2023/01/26 17:27:50;;;;;;;41.65;18.42;;;-3.80;99.90;;;;;;20912179;28;20083;-55
2023/01/26 17:37:52;;;;;;;43.10;18.52;;;-3.60;99.90;;;;;;20914614;28;20024;-55
2023/01/26 17:47:54;;;;;;;52.80;20.88;;;-3.30;99.90;;;;;;20909886;28;20045;-54
2023/01/26 17:57:55;;;;;;;58.88;20.88;;;-3.20;99.90;;;;;;20909795;28;20040;-54
2023/01/26 18:07:57;;;;;;;59.15;21.73;;;-3.20;99.90;;;;;;20909123;28;20033;-54
2023/01/26 18:17:59;;;;;;;59.30;21.05;;;-3.20;99.90;;;;;;20907904;28;20036;-56
2023/01/26 18:28:00;;;;;;;54.35;17.42;;;-3.20;99.90;;;;;;20908231;28;20169;-51
2023/01/26 18:38:03;;;;;;;38.33;16.10;;;-3.30;99.90;;;;;;20906633;28;20481;-55
2023/01/26 18:48:04;;;;;;;40.78;17.13;;;-3.50;99.90;;;;;;20905716;28;20060;-55
2023/01/26 18:58:06;;;;;;;46.35;19.15;;;-3.40;99.90;;;;;;20902345;28;20045;-55
2023/01/26 19:08:12;;;;;;;49.03;18.77;;;-3.40;99.90;;;;;;20901256;28;20037;-56
2023/01/26 19:18:15;;;;;;;52.85;20.30;;;-3.40;99.90;;;;;;20901535;28;20362;-55
2023/01/26 19:28:18;;;;;;;63.08;20.80;;;-3.20;99.90;;;;;;20884691;28;20032;-55
2023/01/26 19:38:20;;;;;;;54.38;22.17;;;-3.20;99.90;;;;;;20902163;28;20082;-54
2023/01/26 19:48:24;;;;;;;101.25;21.40;;;-3.20;99.90;;;;;;20902164;28;20094;-56
2023/01/26 19:58:27;;;;;;;48.47;18.67;;;-3.40;99.90;;;;;;20898027;28;20045;-55
2023/01/26 20:08:29;;;;;;;58.45;17.77;;;-3.50;99.90;;;;;;20901504;28;20083;-55
2023/01/26 20:18:32;;;;;;;41.80;17.50;;;-3.70;99.90;;;;;;20891559;28;20044;-55
2023/01/26 20:28:34;;;;;;;50.38;17.48;;;-3.90;99.90;;;;;;20917165;28;20029;-54
2023/01/26 20:38:36;;;;;;;33.75;15.15;;;-3.70;99.90;;;;;;20914483;28;20025;-55
2023/01/26 20:48:38;;;;;;;41.05;17.52;;;-4.10;99.90;;;;;;20915539;28;20055;-55
2023/01/26 20:58:43;;;;;;;40.85;18.38;;;-3.90;99.90;;;;;;20914160;28;20041;-53
2023/01/26 21:08:47;;;;;;;53.00;20.33;;;-3.50;99.90;;;;;;20910333;28;20095;-54
2023/01/26 21:18:50;;;;;;;34.83;15.50;;;-3.60;99.90;;;;;;20908655;28;20052;-54
2023/01/26 21:28:54;;;;;;;43.97;18.45;;;-3.80;99.90;;;;;;20911520;28;20036;-56
2023/01/26 21:38:57;;;;;;;146.30;22.42;;;-3.90;99.90;;;;;;20911639;28;20086;-56
2023/01/26 21:48:59;;;;;;;36.08;16.30;;;-4.00;99.90;;;;;;20908552;28;20036;-54
2023/01/26 21:59:05;;;;;;;44.72;19.33;;;-4.20;99.90;;;;;;20908699;28;20065;-57
2023/01/26 22:09:09;;;;;;;43.28;17.77;;;-4.10;99.90;;;;;;20909747;28;20029;-54
2023/01/26 22:19:12;;;;;;;39.00;16.73;;;-4.10;99.90;;;;;;20908212;28;20107;-55
2023/01/26 22:29:14;;;;;;;38.80;15.00;;;-4.20;99.90;;;;;;20909135;28;20183;-54
2023/01/26 22:39:16;;;;;;;35.47;14.02;;;-4.30;99.90;;;;;;20906127;28;20029;-55
2023/01/26 22:49:18;;;;;;;30.13;13.38;;;-4.50;99.90;;;;;;20905773;28;20021;-54
2023/01/26 22:59:20;;;;;;;32.33;12.52;;;-4.40;99.90;;;;;;20904990;28;20029;-54
2023/01/26 23:09:21;;;;;;;19.75;8.05;;;-5.00;99.90;;;;;;20872254;28;20038;-56
2023/01/26 23:19:33;;;;;;;36.95;14.43;;;-5.40;99.90;;;;;;20879121;28;20033;-55
2023/01/26 23:29:35;;;;;;;26.55;11.20;;;-5.00;99.90;;;;;;20903389;28;20078;-55
2023/01/26 23:39:36;;;;;;;41.03;15.32;;;-4.70;99.90;;;;;;20901258;28;20025;-55
2023/01/26 23:49:38;;;;;;;35.28;14.13;;;-4.60;99.90;;;;;;20902894;28;20072;-54
2023/01/26 23:59:40;;;;;;;31.73;12.27;;;-4.80;99.90;;;;;;20902562;28;20049;-55
